createdAt,value
2018-07-17T00:00:13.796Z,62.25
2018-07-17T00:02:42.065Z,62.44
2018-07-17T00:05:11.753Z,62.88
2018-07-17T00:07:40.023Z,62.88
2018-07-17T00:10:08.528Z,62.29
2018-07-17T00:12:36.957Z,62.63
2018-07-17T00:15:05.198Z,62.56
2018-07-17T00:17:34.500Z,62.23
2018-07-17T00:20:02.701Z,62.40
2018-07-17T00:22:31.116Z,62.90
2018-07-17T00:24:59.680Z,62.84
2018-07-17T00:27:27.959Z,62.80
2018-07-17T00:29:56.727Z,63.15
2018-07-17T00:32:25.528Z,62.88
2018-07-17T00:34:53.805Z,63.54
2018-07-17T00:37:23.304Z,63.16
2018-07-17T00:39:51.495Z,63.99
2018-07-17T00:42:19.798Z,64.20
2018-07-17T00:44:48.388Z,64.04
2018-07-17T00:47:17.185Z,64.75
2018-07-17T00:49:45.394Z,64.99
2018-07-17T00:52:13.670Z,65.35
2018-07-17T00:54:42.141Z,65.49
2018-07-17T00:57:10.601Z,65.47
2018-07-17T00:59:39.275Z,65.44
2018-07-17T01:02:13.463Z,66.29
2018-07-17T01:04:47.288Z,66.48
2018-07-17T01:07:21.237Z,66.87
2018-07-17T01:09:55.090Z,66.66
2018-07-17T01:12:23.456Z,66.72
2018-07-17T01:14:57.535Z,66.84
2018-07-17T01:17:26.472Z,67.06
2018-07-17T01:19:54.746Z,67.71
2018-07-17T01:22:23.091Z,67.96
2018-07-17T01:24:51.335Z,67.92
2018-07-17T01:27:20.579Z,67.68
2018-07-17T01:29:49.277Z,66.93
2018-07-17T01:32:18.383Z,67.30
2018-07-17T01:34:46.986Z,66.90
2018-07-17T01:37:16.208Z,67.46
2018-07-17T01:39:44.506Z,67.94
2018-07-17T01:42:13.514Z,67.78
2018-07-17T01:44:41.956Z,68.28
2018-07-17T01:47:10.325Z,68.53
2018-07-17T01:49:40.166Z,68.78
2018-07-17T01:52:08.389Z,68.76
2018-07-17T01:54:36.803Z,68.50
2018-07-17T01:57:05.628Z,69.35
2018-07-17T01:59:34.688Z,70.19
2018-07-17T02:02:04.353Z,70.52
2018-07-17T02:04:32.548Z,71.74
2018-07-17T02:07:00.801Z,72.12
2018-07-17T02:09:29.544Z,72.67
2018-07-17T02:11:57.865Z,73.02
2018-07-17T02:14:26.350Z,73.55
2018-07-17T02:16:54.953Z,73.51
2018-07-17T02:19:23.285Z,73.25
2018-07-17T02:21:51.476Z,73.21
2018-07-17T02:24:19.986Z,73.14
2018-07-17T02:26:48.166Z,72.97
2018-07-17T02:29:16.700Z,72.86
2018-07-17T02:31:44.942Z,73.23
2018-07-17T02:34:13.138Z,73.44
2018-07-17T02:36:41.456Z,73.14
2018-07-17T02:39:09.650Z,73.32
2018-07-17T02:41:37.984Z,73.43
2018-07-17T02:44:06.875Z,73.79
2018-07-17T02:46:35.353Z,74.16
2018-07-17T02:49:03.949Z,74.60
2018-07-17T02:51:32.277Z,74.78
2018-07-17T02:54:00.690Z,74.98
2018-07-17T02:56:28.999Z,75.44
2018-07-17T02:58:57.558Z,75.23
2018-07-17T03:01:26.797Z,75.21
2018-07-17T03:03:55.326Z,75.48
2018-07-17T03:06:23.868Z,75.22
2018-07-17T03:08:52.226Z,75.48
2018-07-17T03:11:20.433Z,75.55
2018-07-17T03:13:48.636Z,75.69
2018-07-17T03:16:17.315Z,75.91
2018-07-17T03:18:45.631Z,75.91
2018-07-17T03:21:14.207Z,75.72
2018-07-17T03:23:42.603Z,75.72
2018-07-17T03:26:11.345Z,75.94
2018-07-17T03:28:39.543Z,76.29
2018-07-17T03:31:08.623Z,75.70
2018-07-17T03:33:36.885Z,75.15
2018-07-17T03:36:05.393Z,75.50
2018-07-17T03:38:33.708Z,75.51
2018-07-17T03:41:01.957Z,75.31
2018-07-17T03:43:30.480Z,75.04
2018-07-17T03:45:58.705Z,74.34
2018-07-17T03:48:27.732Z,74.62
2018-07-17T03:50:55.996Z,74.91
2018-07-17T03:53:25.417Z,75.18
2018-07-17T03:55:55.500Z,74.64
2018-07-17T03:58:24.355Z,74.66
2018-07-17T04:00:53.571Z,74.50
2018-07-17T04:03:21.857Z,74.08
2018-07-17T04:05:50.096Z,73.77
2018-07-17T04:08:18.338Z,73.92
2018-07-17T04:10:47.308Z,73.01
2018-07-17T04:13:15.485Z,73.12
2018-07-17T04:15:44.334Z,73.45
2018-07-17T04:18:13.240Z,73.47
2018-07-17T04:20:41.582Z,73.69
2018-07-17T04:23:10.805Z,73.47
2018-07-17T04:25:39.203Z,72.95
2018-07-17T04:28:07.902Z,72.99
2018-07-17T04:30:36.835Z,72.95
2018-07-17T04:33:05.577Z,72.78
2018-07-17T04:35:34.428Z,72.75
2018-07-17T04:38:02.957Z,72.46
2018-07-17T04:40:31.515Z,72.71
2018-07-17T04:43:00.537Z,72.22
2018-07-17T04:45:28.800Z,71.52
2018-07-17T04:47:57.671Z,71.27
2018-07-17T04:50:25.948Z,70.74
2018-07-17T04:52:55.001Z,70.92
2018-07-17T04:55:23.501Z,70.49
2018-07-17T04:57:52.498Z,70.20
2018-07-17T05:00:20.988Z,68.70
2018-07-17T05:02:49.192Z,68.34
2018-07-17T05:05:17.513Z,67.80
2018-07-17T05:07:46.018Z,67.53
2018-07-17T05:10:15.707Z,67.59
2018-07-17T05:12:44.690Z,66.82
2018-07-17T05:15:13.010Z,67.16
2018-07-17T05:17:41.308Z,67.51
2018-07-17T05:20:10.466Z,66.85
2018-07-17T05:22:38.736Z,67.08
2018-07-17T05:25:07.675Z,66.05
2018-07-17T05:27:36.432Z,65.65
2018-07-17T05:30:05.666Z,65.12
2018-07-17T05:32:34.748Z,64.73
2018-07-17T05:35:03.393Z,64.56
2018-07-17T05:37:31.813Z,64.34
2018-07-17T05:40:00.052Z,63.60
2018-07-17T05:42:30.163Z,63.19
2018-07-17T05:44:58.496Z,62.46
2018-07-17T05:47:27.546Z,61.77
2018-07-17T05:49:55.808Z,62.08
2018-07-17T05:52:25.472Z,62.30
2018-07-17T05:54:53.784Z,61.38
2018-07-17T05:57:22.868Z,60.52
2018-07-17T05:59:51.248Z,60.57
2018-07-17T06:02:19.736Z,60.65
2018-07-17T06:04:48.817Z,60.19
2018-07-17T06:07:17.499Z,59.94
2018-07-17T06:09:45.780Z,59.18
2018-07-17T06:12:14.389Z,58.58
2018-07-17T06:14:42.997Z,59.54
2018-07-17T06:17:11.537Z,59.01
2018-07-17T06:19:40.556Z,58.08
2018-07-17T06:22:09.057Z,58.12
2018-07-17T06:24:37.360Z,57.26
2018-07-17T06:27:06.187Z,56.83
2018-07-17T06:29:34.689Z,57.20
2018-07-17T06:32:04.525Z,57.50
2018-07-17T06:34:32.880Z,56.14
2018-07-17T06:37:02.848Z,56.46
2018-07-17T06:39:31.257Z,55.32
2018-07-17T06:41:59.537Z,55.50
2018-07-17T06:44:28.358Z,56.06
2018-07-17T06:46:57.337Z,55.16
2018-07-17T06:49:26.211Z,54.11
2018-07-17T06:51:55.262Z,52.85
2018-07-17T06:54:23.542Z,52.79
2018-07-17T06:56:51.876Z,52.40
2018-07-17T06:59:20.359Z,52.31
2018-07-17T07:01:49.332Z,51.66
2018-07-17T07:04:18.280Z,50.38
2018-07-17T07:06:46.860Z,49.73
2018-07-17T07:09:15.132Z,50.62
2018-07-17T07:11:43.324Z,50.32
2018-07-17T07:14:11.618Z,50.82
2018-07-17T07:16:40.648Z,50.41
2018-07-17T07:19:09.172Z,50.12
2018-07-17T07:21:37.474Z,49.85
2018-07-17T07:24:05.933Z,50.20
2018-07-17T07:26:35.110Z,49.42
2018-07-17T07:29:03.448Z,49.07
2018-07-17T07:31:31.712Z,49.16
2018-07-17T07:34:00.665Z,48.55
2018-07-17T07:36:29.290Z,48.58
2018-07-17T07:38:57.976Z,49.13
2018-07-17T07:41:26.367Z,48.26
2018-07-17T07:43:55.522Z,48.22
2018-07-17T07:46:25.288Z,47.84
2018-07-17T07:48:54.474Z,47.70
2018-07-17T07:51:23.940Z,47.99
2018-07-17T07:53:52.548Z,47.60
2018-07-17T07:56:20.801Z,47.20
2018-07-17T07:58:49.225Z,47.12
2018-07-17T08:01:17.910Z,47.08
2018-07-17T08:03:49.470Z,46.48
2018-07-17T08:06:18.111Z,46.39
2018-07-17T08:08:46.576Z,46.09
2018-07-17T08:11:15.108Z,45.89
2018-07-17T08:13:43.357Z,45.19
2018-07-17T08:16:11.709Z,44.14
2018-07-17T08:18:40.021Z,44.06
2018-07-17T08:21:09.236Z,43.45
2018-07-17T08:23:37.548Z,42.38
2018-07-17T08:26:06.101Z,42.03
2018-07-17T08:28:34.618Z,41.66
2018-07-17T08:31:03.413Z,41.84
2018-07-17T08:33:31.831Z,41.11
2018-07-17T08:36:01.369Z,40.36
2018-07-17T08:38:30.328Z,40.15
2018-07-17T08:40:59.051Z,39.75
2018-07-17T08:43:27.479Z,39.46
2018-07-17T08:45:57.315Z,38.73
2018-07-17T08:48:25.649Z,38.51
2018-07-17T08:50:53.877Z,38.25
2018-07-17T08:53:22.159Z,38.21
2018-07-17T08:55:50.557Z,38.33
2018-07-17T08:58:19.513Z,37.89
2018-07-17T09:00:49.208Z,37.73
2018-07-17T09:03:17.926Z,37.11
2018-07-17T09:05:46.923Z,37.36
2018-07-17T09:08:15.801Z,36.91
2018-07-17T09:10:44.900Z,36.89
2018-07-17T09:13:13.624Z,36.11
2018-07-17T09:15:42.084Z,34.45
2018-07-17T09:18:10.968Z,33.87
2018-07-17T09:20:39.540Z,33.90
2018-07-17T09:23:08.136Z,33.55
2018-07-17T09:25:37.341Z,34.08
2018-07-17T09:28:06.236Z,34.60
2018-07-17T09:30:40.780Z,34.99
2018-07-17T09:33:09.320Z,34.53
2018-07-17T09:35:37.573Z,34.02
2018-07-17T09:38:07.041Z,33.43
2018-07-17T09:40:35.569Z,33.01
2018-07-17T09:43:04.059Z,32.58
2018-07-17T09:45:32.538Z,33.15
2018-07-17T09:48:01.541Z,33.52
2018-07-17T09:50:30.050Z,33.19
2018-07-17T09:52:59.088Z,33.23
2018-07-17T09:55:27.808Z,32.69
2018-07-17T09:57:56.370Z,30.22
2018-07-17T10:00:31.115Z,31.34
2018-07-17T10:02:59.681Z,30.56
2018-07-17T10:05:29.188Z,31.55
2018-07-17T10:07:57.906Z,30.71
2018-07-17T10:10:26.148Z,29.94
2018-07-17T10:12:54.697Z,31.43
2018-07-17T10:15:22.973Z,31.32
2018-07-17T10:17:52.745Z,30.89
2018-07-17T10:20:21.801Z,30.01
2018-07-17T10:22:50.545Z,29.33
2018-07-17T10:25:19.037Z,29.30
2018-07-17T10:27:47.903Z,27.53
2018-07-17T10:30:16.574Z,28.01
2018-07-17T10:32:45.024Z,27.65
2018-07-17T10:35:13.586Z,27.41
2018-07-17T10:37:41.904Z,26.80
2018-07-17T10:40:10.168Z,26.21
2018-07-17T10:42:38.383Z,25.34
2018-07-17T10:45:07.434Z,25.61
2018-07-17T10:47:35.781Z,26.94
2018-07-17T10:50:04.116Z,26.23
2018-07-17T10:52:32.964Z,26.93
2018-07-17T10:55:01.937Z,25.84
2018-07-17T10:57:30.456Z,27.45
2018-07-17T10:59:58.656Z,28.57
2018-07-17T11:02:27.274Z,28.61
2018-07-17T11:04:58.375Z,28.03
2018-07-17T11:07:27.281Z,25.34
2018-07-17T11:09:55.945Z,24.33
2018-07-17T11:12:24.896Z,24.67
2018-07-17T11:14:53.577Z,23.96
2018-07-17T11:17:23.394Z,23.00
2018-07-17T11:19:51.812Z,23.91
2018-07-17T11:22:20.253Z,23.67
2018-07-17T11:24:49.658Z,24.55
2018-07-17T11:27:18.207Z,24.48
2018-07-17T11:29:46.763Z,24.22
2018-07-17T11:32:15.446Z,23.98
2018-07-17T11:34:44.051Z,23.75
2018-07-17T11:37:12.401Z,22.83
2018-07-17T11:39:40.677Z,23.67
2018-07-17T11:42:09.042Z,24.33
2018-07-17T11:44:37.370Z,25.23
2018-07-17T11:47:05.562Z,23.91
2018-07-17T11:49:34.197Z,23.61
2018-07-17T11:52:02.985Z,24.02
2018-07-17T11:54:31.334Z,24.46
2018-07-17T11:57:00.189Z,24.77
2018-07-17T11:59:28.530Z,23.48
2018-07-17T12:01:56.990Z,22.77
2018-07-17T12:04:25.262Z,22.65
2018-07-17T12:06:54.292Z,22.18
2018-07-17T12:09:23.187Z,21.90
2018-07-17T12:11:51.709Z,21.38
2018-07-17T12:14:20.573Z,20.96
2018-07-17T12:16:49.736Z,21.75
2018-07-17T12:19:18.127Z,21.74
2018-07-17T12:21:46.853Z,21.46
2018-07-17T12:24:15.449Z,21.75
2018-07-17T12:26:43.951Z,21.89
2018-07-17T12:29:12.284Z,22.00
2018-07-17T12:31:40.519Z,21.67
2018-07-17T12:34:10.052Z,21.71
2018-07-17T12:36:38.771Z,21.38
2018-07-17T12:39:09.429Z,22.58
2018-07-17T12:41:37.889Z,22.06
2018-07-17T12:44:06.457Z,22.58
2018-07-17T12:46:34.807Z,22.72
2018-07-17T12:49:03.745Z,23.47
2018-07-17T12:51:32.081Z,21.93
2018-07-17T12:54:00.495Z,21.80
2018-07-17T12:56:28.784Z,21.82
2018-07-17T12:58:57.185Z,23.37
2018-07-17T13:01:25.520Z,22.07
2018-07-17T13:03:54.010Z,21.68
2018-07-17T13:06:22.426Z,21.69
2018-07-17T13:08:50.605Z,21.84
2018-07-17T13:11:18.914Z,22.77
2018-07-17T13:13:47.082Z,23.08
2018-07-17T13:16:15.328Z,23.02
2018-07-17T13:18:43.689Z,22.10
2018-07-17T13:21:11.924Z,21.29
2018-07-17T13:23:40.542Z,20.67
2018-07-17T13:26:08.881Z,20.11
2018-07-17T13:28:37.341Z,18.24
2018-07-17T13:31:05.809Z,19.04
2018-07-17T13:33:34.308Z,21.04
2018-07-17T13:36:02.496Z,21.68
2018-07-17T13:38:30.671Z,19.87
2018-07-17T13:40:59.151Z,21.50
2018-07-17T13:43:27.734Z,24.71
2018-07-17T13:45:55.907Z,28.56
2018-07-17T13:48:24.621Z,29.88
2018-07-17T13:50:52.832Z,29.87
2018-07-17T13:53:21.608Z,29.83
2018-07-17T13:55:50.009Z,29.94
2018-07-17T13:58:18.726Z,26.96
2018-07-17T14:00:47.325Z,27.53
2018-07-17T14:03:15.701Z,26.75
2018-07-17T14:05:44.901Z,23.62
2018-07-17T14:08:13.337Z,22.54
2018-07-17T14:10:42.017Z,24.58
2018-07-17T14:13:10.655Z,26.48
2018-07-17T14:15:39.084Z,28.25
2018-07-17T14:18:07.417Z,27.95
2018-07-17T14:20:36.088Z,28.77
2018-07-17T14:23:04.640Z,28.97
2018-07-17T14:25:32.957Z,29.46
2018-07-17T14:28:01.858Z,29.58
2018-07-17T14:30:30.453Z,28.17
2018-07-17T14:32:58.620Z,26.95
2018-07-17T14:35:26.879Z,27.33
2018-07-17T14:37:55.352Z,25.97
2018-07-17T14:40:23.685Z,26.99
2018-07-17T14:42:53.330Z,27.77
2018-07-17T14:45:22.248Z,28.28
2018-07-17T14:47:50.816Z,28.22
2018-07-17T14:50:21.520Z,25.17
2018-07-17T14:52:49.740Z,24.53
2018-07-17T14:55:18.067Z,24.74
2018-07-17T14:57:46.912Z,24.83
2018-07-17T15:00:15.843Z,24.16
2018-07-17T15:02:44.556Z,21.13
2018-07-17T15:05:12.826Z,21.45
2018-07-17T15:07:41.145Z,23.63
2018-07-17T15:10:11.848Z,25.23
2018-07-17T15:12:40.117Z,26.21
2018-07-17T15:15:08.659Z,25.95
2018-07-17T15:17:38.135Z,26.14
2018-07-17T15:20:06.440Z,27.15
2018-07-17T15:22:35.377Z,26.59
2018-07-17T15:25:03.989Z,25.83
2018-07-17T15:27:32.192Z,25.95
2018-07-17T15:30:00.813Z,25.78
2018-07-17T15:32:29.293Z,24.86
2018-07-17T15:34:58.458Z,22.82
2018-07-17T15:37:27.280Z,21.94
2018-07-17T15:39:55.850Z,19.15
2018-07-17T15:42:24.452Z,16.71
2018-07-17T15:44:52.786Z,14.96
2018-07-17T15:47:21.076Z,15.56
2018-07-17T15:49:49.369Z,14.92
2018-07-17T15:52:17.989Z,15.01
2018-07-17T15:54:46.369Z,13.67
2018-07-17T15:57:15.243Z,14.17
2018-07-17T15:59:44.045Z,14.06
2018-07-17T16:02:12.419Z,14.77
2018-07-17T16:04:41.278Z,15.59
2018-07-17T16:07:09.633Z,16.37
2018-07-17T16:09:38.140Z,14.99
2018-07-17T16:12:06.721Z,14.70
2018-07-17T16:14:35.761Z,14.63
2018-07-17T16:17:04.412Z,14.43
2018-07-17T16:19:33.256Z,14.18
2018-07-17T16:22:02.758Z,13.98
2018-07-17T16:24:31.032Z,14.85
2018-07-17T16:26:59.273Z,13.04
2018-07-17T16:29:27.957Z,14.12
2018-07-17T16:31:56.724Z,14.10
2018-07-17T16:34:25.021Z,13.88
2018-07-17T16:36:53.447Z,14.37
2018-07-17T16:39:21.815Z,14.38
2018-07-17T16:41:50.159Z,15.53
2018-07-17T16:44:18.435Z,17.35
2018-07-17T16:46:46.940Z,17.96
2018-07-17T16:49:16.047Z,16.61
2018-07-17T16:51:45.931Z,17.48
2018-07-17T16:54:14.320Z,15.93
2018-07-17T16:56:43.104Z,18.00
2018-07-17T16:59:12.703Z,19.43
2018-07-17T17:01:42.001Z,18.90
2018-07-17T17:04:10.707Z,18.31
2018-07-17T17:06:39.306Z,17.91
2018-07-17T17:09:11.210Z,19.16
2018-07-17T17:11:39.983Z,20.30
2018-07-17T17:14:09.435Z,19.23
2018-07-17T17:16:37.665Z,18.99
2018-07-17T17:19:06.431Z,19.17
2018-07-17T17:21:35.315Z,20.67
2018-07-17T17:24:04.599Z,21.80
2018-07-17T17:26:33.631Z,22.14
2018-07-17T17:29:01.940Z,23.43
2018-07-17T17:31:30.432Z,23.34
2018-07-17T17:33:58.641Z,23.01
2018-07-17T17:36:27.962Z,22.48
2018-07-17T17:38:56.133Z,22.03
2018-07-17T17:41:24.729Z,22.48
2018-07-17T17:43:53.078Z,24.90
2018-07-17T17:46:21.386Z,25.35
2018-07-17T17:48:49.861Z,24.75
2018-07-17T17:51:18.176Z,24.69
2018-07-17T17:53:46.418Z,25.29
2018-07-17T17:56:14.861Z,25.18
2018-07-17T17:58:43.026Z,25.29
2018-07-17T18:01:11.409Z,26.20
2018-07-17T18:03:39.852Z,27.24
2018-07-17T18:06:08.544Z,30.16
2018-07-17T18:08:36.830Z,31.45
2018-07-17T18:11:05.644Z,32.29
2018-07-17T18:13:34.073Z,32.86
2018-07-17T18:16:02.411Z,33.48
2018-07-17T18:18:30.897Z,34.20
2018-07-17T18:20:59.208Z,34.64
2018-07-17T18:23:27.556Z,35.01
2018-07-17T18:25:56.183Z,35.44
2018-07-17T18:28:24.608Z,35.39
2018-07-17T18:30:52.889Z,35.28
2018-07-17T18:33:21.278Z,35.78
2018-07-17T18:35:49.553Z,36.66
2018-07-17T18:38:18.229Z,37.49
2018-07-17T18:40:46.720Z,36.98
2018-07-17T18:43:15.203Z,37.10
2018-07-17T18:45:43.697Z,37.60
2018-07-17T18:48:12.475Z,38.94
2018-07-17T18:50:41.278Z,40.32
2018-07-17T18:53:10.347Z,41.04
2018-07-17T18:55:39.039Z,41.32
2018-07-17T18:58:08.076Z,41.46
2018-07-17T19:00:37.532Z,41.80
2018-07-17T19:03:06.061Z,42.54
2018-07-17T19:05:34.494Z,42.84
2018-07-17T19:08:03.035Z,43.48
2018-07-17T19:10:31.398Z,43.69
2018-07-17T19:13:00.086Z,44.10
2018-07-17T19:15:28.443Z,44.40
2018-07-17T19:17:57.168Z,44.28
2018-07-17T19:20:25.737Z,44.85
2018-07-17T19:22:54.019Z,45.42
2018-07-17T19:25:22.755Z,45.67
2018-07-17T19:27:51.929Z,46.63
2018-07-17T19:30:20.125Z,47.13
2018-07-17T19:32:48.449Z,47.43
2018-07-17T19:35:17.313Z,47.21
2018-07-17T19:37:45.588Z,47.66
2018-07-17T19:40:14.297Z,47.72
2018-07-17T19:42:42.841Z,47.82
2018-07-17T19:45:11.195Z,48.21
2018-07-17T19:47:40.550Z,48.27
2018-07-17T19:50:08.776Z,48.33
2018-07-17T19:52:37.971Z,48.39
2018-07-17T19:55:06.931Z,48.56
2018-07-17T19:57:35.535Z,48.73
2018-07-17T20:00:05.042Z,48.71
2018-07-17T20:02:33.596Z,48.65
2018-07-17T20:05:01.914Z,48.36
2018-07-17T20:07:30.266Z,48.29
2018-07-17T20:09:58.907Z,48.51
2018-07-17T20:12:27.872Z,48.63
2018-07-17T20:14:56.436Z,48.42
2018-07-17T20:17:24.952Z,48.59
2018-07-17T20:19:53.811Z,48.41
2018-07-17T20:22:22.430Z,48.27
2018-07-17T20:24:50.666Z,48.24
2018-07-17T20:27:22.412Z,48.41
2018-07-17T20:29:51.941Z,48.10
2018-07-17T20:32:20.229Z,48.02
2018-07-17T20:34:48.590Z,48.30
2018-07-17T20:37:16.812Z,48.13
2018-07-17T20:39:45.557Z,48.43
2018-07-17T20:42:13.857Z,48.45
2018-07-17T20:44:43.169Z,47.81
2018-07-17T20:47:12.464Z,47.21
2018-07-17T20:49:41.505Z,47.34
2018-07-17T20:52:10.537Z,46.72
2018-07-17T20:54:38.807Z,46.35
2018-07-17T20:57:07.422Z,46.30
2018-07-17T20:59:36.376Z,46.22
2018-07-17T21:02:05.605Z,46.11
2018-07-17T21:04:35.171Z,46.22
2018-07-17T21:07:03.895Z,46.18
2018-07-17T21:09:32.142Z,46.63
2018-07-17T21:12:00.656Z,47.58
2018-07-17T21:14:28.976Z,47.75
2018-07-17T21:16:57.302Z,47.48
2018-07-17T21:19:25.824Z,47.39
2018-07-17T21:21:54.280Z,47.41
2018-07-17T21:24:24.254Z,47.53
2018-07-17T21:26:52.497Z,47.57
2018-07-17T21:29:21.363Z,47.79
2018-07-17T21:31:49.620Z,48.07
2018-07-17T21:34:17.984Z,48.04
2018-07-17T21:36:46.359Z,48.20
2018-07-17T21:39:14.592Z,48.17
2018-07-17T21:41:45.176Z,48.28
2018-07-17T21:44:17.066Z,48.58
2018-07-17T21:46:48.020Z,48.94
2018-07-17T21:49:18.707Z,49.51
2018-07-17T21:51:50.859Z,50.11
2018-07-17T21:54:19.448Z,50.22
2018-07-17T21:56:47.653Z,50.66
2018-07-17T21:59:15.892Z,50.70
2018-07-17T22:01:44.193Z,50.78
2018-07-17T22:04:12.898Z,50.88
2018-07-17T22:06:41.385Z,51.47
2018-07-17T22:09:11.981Z,51.76
2018-07-17T22:11:41.004Z,51.24
2018-07-17T22:14:09.531Z,51.59
2018-07-17T22:16:38.130Z,51.63
2018-07-17T22:19:06.648Z,51.92
2018-07-17T22:21:34.860Z,51.93
2018-07-17T22:24:03.386Z,52.26
2018-07-17T22:26:31.831Z,52.52
2018-07-17T22:29:00.546Z,52.38
2018-07-17T22:31:29.167Z,52.29
2018-07-17T22:33:57.402Z,52.05
2018-07-17T22:36:26.266Z,52.59
2018-07-17T22:38:55.122Z,52.50
2018-07-17T22:41:23.670Z,52.36
2018-07-17T22:43:51.980Z,52.67
2018-07-17T22:46:20.207Z,52.82
2018-07-17T22:48:48.825Z,53.01
2018-07-17T22:51:17.386Z,53.06
2018-07-17T22:53:45.971Z,52.75
2018-07-17T22:56:14.310Z,52.68
2018-07-17T22:58:42.680Z,52.70
2018-07-17T23:01:11.076Z,53.38
2018-07-17T23:03:39.378Z,54.10
2018-07-17T23:06:08.248Z,54.15
2018-07-17T23:08:36.455Z,54.24
2018-07-17T23:11:05.111Z,54.41
2018-07-17T23:13:33.307Z,54.56
2018-07-17T23:16:01.481Z,54.74
2018-07-17T23:18:30.253Z,54.84
2018-07-17T23:20:58.590Z,54.94
2018-07-17T23:23:27.098Z,55.22
2018-07-17T23:25:55.632Z,55.67
2018-07-17T23:28:23.891Z,56.59
2018-07-17T23:30:52.085Z,57.14
2018-07-17T23:33:20.344Z,56.77
2018-07-17T23:35:48.546Z,56.74
2018-07-17T23:38:17.076Z,56.70
2018-07-17T23:40:45.325Z,57.79
2018-07-17T23:43:14.123Z,58.16
2018-07-17T23:45:42.958Z,58.33
2018-07-17T23:48:11.891Z,58.36
2018-07-17T23:50:40.834Z,58.38
2018-07-17T23:53:09.391Z,58.49
2018-07-17T23:55:39.072Z,59.01
2018-07-17T23:58:07.453Z,58.43
